Terminal Aerodrome Forecast
Issued by NWS Shreveport, LA

Home | Current Version | Previous Version | Text Only | Print | Product List | Glossary On
Versions: 1 2 3 4 5 6 7 8 9 10 11 12 13 14 15 16 17 18 19
000
FTUS44 KSHV 211400 AAA
TAFLFK
TAF AMD
KLFK 211402Z 2114/2212 VRB03KT P6SM SKC
     FM211700 02004KT P6SM SCT045 SCT250
     FM220100 VRB03KT P6SM SCT250
     FM220600 VRB03KT P6SM SCT060 SCT090 SCT250=

USA.gov is the U.S. government's official web portal to all federal, state and local government web resources and services.